Terminal Aerodrome Forecast
Issued by NWS Omaha/Valley, NE

Home | Current Version | Previous Version | Text Only | Print | Product List | Glossary On
Versions: 1 2 3 4 5 6 7 8 9 10 11 12 13 14 15 16 17 18 19 20 21 22 23 24 25 26 27 28 29 30 31 32 33 34 35 36 37
000
FTUS43 KOAX 012322
TAFOFK
TAF
KOFK 012322Z 0200/0224 35006KT P6SM SCT050 BKN250
      TEMPO 0209/0211 3SM -DZ BR SCT015 OVC050
     FM021100 35011KT 4SM -SHRA SCT010 OVC035
     FM021500 34012G20KT P6SM -SHRA OVC025
     FM021900 33011KT P6SM OVC035=

USA.gov is the U.S. government's official web portal to all federal, state and local government web resources and services.